Alpine Marie — H3UD — position and weather

sailwx.info

Track history (hours):
 
Tides and Currents Weather Stations Pressure Air Temp Water Temp Dewpoint Dewpoint Depression Visibility Wind Speed Wind Dir Waves Ship Positions

Alpine Marie

Last reported at 2014-Nov-17 06:13 UTC. Time now 2014-Nov-28 03:08 UTC.
Position S 25°34' E 153°51'.
Warning: this ship's position is 10 days out of date.

Length 172 m; draft 8.7 m.

Type: Tanker. MMSI: 353172000.

Date/timePositionNaut miles runAvg speedWind from/ knotsBaromVisibWave heightAir tempDewpointWater temp
2014-Nov-17 06:13S 25°34' E 153°51'1012.0
2014-Nov-17 05:24S 25°44' E 153°53'1212.0
2014-Nov-17 04:24S 25°56' E 153°56'1011.9
2014-Nov-17 03:33S 26°05' E 153°58'1211.9
2014-Nov-17 02:31S 26°18' E 154°00'1111.8
2014-Nov-17 01:33S 26°29' E 154°03'1111.3
2014-Nov-17 00:32S 26°40' E 154°06'1111.5
2014-Nov-16 23:33S 26°51' E 154°08'1312.1
2014-Nov-16 22:27S 27°04' E 154°11'1112.4
2014-Nov-16 21:32S 27°15' E 154°14'75 9.2
2014-Nov-16 13:21S 28°30' E 154°09'1012.3
2014-Nov-16 12:33S 28°40' E 154°08'1312.7
2014-Nov-16 11:33S 28°53' E 154°08'1212.3
2014-Nov-16 10:33S 29°05' E 154°07'1312.0
2014-Nov-16 09:28S 29°18' E 154°06'19812.4
2014-Nov-15 17:30S 32°30' E 153°10'1313.7
2014-Nov-15 16:33S 32°42' E 153°02'1714.2
2014-Nov-15 15:20S 32°57' E 152°52'3414.9
2014-Nov-15 13:04S 33°26' E 152°33'2314.8
2014-Nov-15 11:31S 33°46' E 152°19'57 1.8
2014-Nov-14 04:20S 33°59' E 151°12'7 7.6
2014-Nov-14 03:21S 34°01' E 151°21'1 1.5
2014-Nov-14 02:33S 34°01' E 151°22'1 1.2
2014-Nov-14 01:33S 33°60' E 151°23'19 8.3
2014-Nov-13 23:14S 33°56' E 151°45'912.6
2014-Nov-13 22:33S 33°55' E 151°56'4911.5
2014-Nov-13 18:20S 33°20' E 152°36'2311.1
2014-Nov-13 16:14S 32°58' E 152°45'2010.7
2014-Nov-13 14:22S 32°44' E 153°02'1012.7
2014-Nov-13 13:33S 32°35' E 153°07'34213.1
2014-Nov-12 11:26S 27°02' E 154°36'1213.7
2014-Nov-12 10:33S 26°50' E 154°37'1313.4
2014-Nov-12 09:33S 26°37' E 154°37'1713.2
2014-Nov-12 08:14S 26°19' E 154°38'3813.1
2014-Nov-12 05:19S 25°41' E 154°40'1012.8
2014-Nov-12 04:33S 25°31' E 154°40'8312.8
2014-Nov-11 22:05S 24°09' E 154°44'  
Track history (hours):
 
Tides and Currents Weather Stations Pressure Air Temp Water Temp Dewpoint Dewpoint Depression Visibility Wind Speed Wind Dir Waves Ship Positions

Alpine Marie

Last reported at 2014-Nov-17 06:13 UTC. Time now 2014-Nov-28 03:08 UTC.
Position S 25°34' E 153°51'.
Warning: this ship's position is 10 days out of date.

Length 172 m; draft 8.7 m.

Type: Tanker. MMSI: 353172000.

Date/timePositionNaut miles runAvg speedWind from/ knotsBaromVisibWave heightAir tempDewpointWater temp
2014-Nov-17 06:13S 25°34' E 153°51'1012.0
2014-Nov-17 05:24S 25°44' E 153°53'1212.0
2014-Nov-17 04:24S 25°56' E 153°56'1011.9
2014-Nov-17 03:33S 26°05' E 153°58'1211.9
2014-Nov-17 02:31S 26°18' E 154°00'1111.8
2014-Nov-17 01:33S 26°29' E 154°03'1111.3
2014-Nov-17 00:32S 26°40' E 154°06'1111.5
2014-Nov-16 23:33S 26°51' E 154°08'1312.1
2014-Nov-16 22:27S 27°04' E 154°11'1112.4
2014-Nov-16 21:32S 27°15' E 154°14'75 9.2
2014-Nov-16 13:21S 28°30' E 154°09'1012.3
2014-Nov-16 12:33S 28°40' E 154°08'1312.7
2014-Nov-16 11:33S 28°53' E 154°08'1212.3
2014-Nov-16 10:33S 29°05' E 154°07'1312.0
2014-Nov-16 09:28S 29°18' E 154°06'19812.4
2014-Nov-15 17:30S 32°30' E 153°10'1313.7
2014-Nov-15 16:33S 32°42' E 153°02'1714.2
2014-Nov-15 15:20S 32°57' E 152°52'3414.9
2014-Nov-15 13:04S 33°26' E 152°33'2314.8
2014-Nov-15 11:31S 33°46' E 152°19'57 1.8
2014-Nov-14 04:20S 33°59' E 151°12'7 7.6
2014-Nov-14 03:21S 34°01' E 151°21'1 1.5
2014-Nov-14 02:33S 34°01' E 151°22'1 1.2
2014-Nov-14 01:33S 33°60' E 151°23'19 8.3
2014-Nov-13 23:14S 33°56' E 151°45'912.6
2014-Nov-13 22:33S 33°55' E 151°56'4911.5
2014-Nov-13 18:20S 33°20' E 152°36'2311.1
2014-Nov-13 16:14S 32°58' E 152°45'2010.7
2014-Nov-13 14:22S 32°44' E 153°02'1012.7
2014-Nov-13 13:33S 32°35' E 153°07'34213.1
2014-Nov-12 11:26S 27°02' E 154°36'1213.7
2014-Nov-12 10:33S 26°50' E 154°37'1313.4
2014-Nov-12 09:33S 26°37' E 154°37'1713.2
2014-Nov-12 08:14S 26°19' E 154°38'3813.1
2014-Nov-12 05:19S 25°41' E 154°40'1012.8
2014-Nov-12 04:33S 25°31' E 154°40'8312.8
2014-Nov-11 22:05S 24°09' E 154°44'  

Dump ship's entire track history